createdAt,value
2023-03-31T00:00:54.243Z,11.20
2023-03-31T00:03:25.087Z,11.20
2023-03-31T00:06:00.864Z,11.10
2023-03-31T00:08:35.659Z,11.10
2023-03-31T00:11:07.425Z,11.10
2023-03-31T00:13:36.070Z,11.10
2023-03-31T00:16:08.176Z,11.10
2023-03-31T00:18:36.527Z,11.10
2023-03-31T00:21:24.943Z,11.10
2023-03-31T00:24:00.215Z,11.10
2023-03-31T00:26:28.029Z,11.10
2023-03-31T00:28:55.548Z,11.10
2023-03-31T00:31:23.848Z,11.10
2023-03-31T00:33:51.092Z,11.10
2023-03-31T00:36:21.484Z,11.10
2023-03-31T00:38:49.133Z,11.10
2023-03-31T00:41:16.665Z,11.10
2023-03-31T00:44:24.546Z,11.10
2023-03-31T00:47:18.018Z,11.10
2023-03-31T00:49:57.056Z,11.10
2023-03-31T00:52:32.406Z,11.10
2023-03-31T00:55:08.994Z,11.10
2023-03-31T00:57:41.373Z,11.20
2023-03-31T01:00:15.574Z,11.10
2023-03-31T01:02:52.346Z,11.20
2023-03-31T01:05:24.384Z,11.20
2023-03-31T01:07:53.725Z,11.20
2023-03-31T01:10:22.583Z,11.20
2023-03-31T01:12:55.244Z,11.20
2023-03-31T01:15:23.181Z,11.20
2023-03-31T01:17:55.642Z,11.20
2023-03-31T01:20:56.415Z,11.20
2023-03-31T01:23:56.549Z,11.30
2023-03-31T01:27:06.960Z,11.30
2023-03-31T01:30:11.481Z,11.30
2023-03-31T01:33:21.326Z,11.30
2023-03-31T01:36:15.790Z,11.30
2023-03-31T01:39:29.502Z,11.30
2023-03-31T01:42:14.589Z,11.30
2023-03-31T01:45:01.272Z,11.30
2023-03-31T01:47:40.262Z,11.30
2023-03-31T01:50:31.219Z,11.30
2023-03-31T01:53:25.178Z,11.30
2023-03-31T01:56:40.965Z,11.20
2023-03-31T01:59:39.577Z,11.30
2023-03-31T02:02:22.316Z,11.30
2023-03-31T02:04:57.114Z,11.20
2023-03-31T02:07:35.927Z,11.20
2023-03-31T02:10:09.320Z,11.30
2023-03-31T02:12:39.802Z,11.20
2023-03-31T02:15:16.061Z,11.30
2023-03-31T02:17:47.397Z,11.30
2023-03-31T02:20:19.296Z,11.30
2023-03-31T02:22:52.610Z,11.30
2023-03-31T02:25:27.511Z,11.30
2023-03-31T02:28:01.891Z,11.40
2023-03-31T02:31:22.608Z,11.40
2023-03-31T02:33:49.900Z,11.40
2023-03-31T02:36:18.375Z,11.40
2023-03-31T02:39:19.741Z,11.40
2023-03-31T02:41:46.819Z,11.40
2023-03-31T02:44:14.687Z,11.50
2023-03-31T02:46:41.650Z,11.40
2023-03-31T02:49:11.354Z,11.50
2023-03-31T02:52:17.291Z,11.50
2023-03-31T02:55:20.917Z,11.50
2023-03-31T02:58:27.312Z,11.50
2023-03-31T03:01:20.367Z,11.50
2023-03-31T03:03:59.246Z,11.50
2023-03-31T03:07:03.186Z,11.60
2023-03-31T03:10:09.992Z,11.60
2023-03-31T03:13:04.752Z,11.60
2023-03-31T03:15:40.882Z,11.50
2023-03-31T03:18:08.038Z,11.50
2023-03-31T03:20:35.866Z,11.50
2023-03-31T03:23:03.017Z,11.50
2023-03-31T03:25:30.357Z,11.50
2023-03-31T03:27:57.258Z,11.50
2023-03-31T03:30:24.132Z,11.60
2023-03-31T03:32:51.107Z,11.60
2023-03-31T03:35:18.128Z,11.60
2023-03-31T03:37:45.444Z,11.60
2023-03-31T03:40:12.718Z,11.60
2023-03-31T03:42:39.631Z,11.60
2023-03-31T03:45:07.815Z,11.60
2023-03-31T03:47:34.819Z,11.60
2023-03-31T03:50:02.774Z,11.50
2023-03-31T03:52:29.876Z,11.60
2023-03-31T03:54:56.816Z,11.50
2023-03-31T03:57:23.667Z,11.40
2023-03-31T03:59:50.533Z,11.40
2023-03-31T04:02:17.402Z,11.40
2023-03-31T04:04:44.334Z,11.30
2023-03-31T04:07:11.177Z,11.30
2023-03-31T04:09:38.000Z,11.30
2023-03-31T04:12:05.180Z,11.30
2023-03-31T04:14:31.986Z,11.30
2023-03-31T04:16:58.830Z,11.30
2023-03-31T04:19:25.908Z,11.30
2023-03-31T04:22:02.636Z,11.20
2023-03-31T04:24:32.809Z,11.20
2023-03-31T04:27:03.201Z,11.30
2023-03-31T04:29:33.619Z,11.30
2023-03-31T04:32:00.981Z,11.30
2023-03-31T04:34:35.054Z,11.30
2023-03-31T04:37:03.236Z,11.30
2023-03-31T04:39:31.273Z,11.40
2023-03-31T04:42:00.097Z,11.40
2023-03-31T04:44:27.792Z,11.40
2023-03-31T04:46:55.713Z,11.40
2023-03-31T04:49:22.904Z,11.50
2023-03-31T04:51:50.286Z,11.50
2023-03-31T04:54:17.218Z,11.50
2023-03-31T04:56:44.214Z,11.50
2023-03-31T04:59:11.259Z,11.50
2023-03-31T05:01:38.307Z,11.50
2023-03-31T05:04:05.975Z,11.50
2023-03-31T05:06:33.011Z,11.50
2023-03-31T05:09:00.029Z,11.50
2023-03-31T05:11:27.453Z,11.50
2023-03-31T05:13:54.728Z,11.40
2023-03-31T05:16:21.675Z,11.40
2023-03-31T05:18:48.528Z,11.40
2023-03-31T05:21:21.497Z,11.40
2023-03-31T05:23:49.128Z,11.30
2023-03-31T05:26:16.621Z,11.30
2023-03-31T05:28:45.591Z,11.30
2023-03-31T05:31:13.216Z,11.20
2023-03-31T05:33:41.993Z,11.20
2023-03-31T05:36:17.004Z,11.20
2023-03-31T05:38:44.044Z,11.30
2023-03-31T05:41:11.811Z,11.10
2023-03-31T05:43:39.854Z,11.10
2023-03-31T05:46:10.551Z,11.10
2023-03-31T05:48:38.049Z,11.10
2023-03-31T05:51:05.527Z,11.10
2023-03-31T05:53:32.436Z,11.10
2023-03-31T05:56:05.549Z,11.10
2023-03-31T05:58:36.249Z,11.10
2023-03-31T06:01:07.978Z,11.10
2023-03-31T06:03:38.032Z,11.10
2023-03-31T06:06:06.285Z,11.20
2023-03-31T06:08:33.186Z,11.20
2023-03-31T06:11:00.436Z,11.20
2023-03-31T06:13:27.335Z,11.20
2023-03-31T06:16:00.018Z,11.30
2023-03-31T06:18:32.994Z,11.30
2023-03-31T06:20:59.825Z,11.40
2023-03-31T06:23:27.234Z,11.40
2023-03-31T06:25:55.044Z,11.50
2023-03-31T06:28:22.014Z,11.50
2023-03-31T06:30:48.858Z,11.50
2023-03-31T06:33:16.489Z,11.70
2023-03-31T06:35:43.404Z,11.60
2023-03-31T06:38:10.848Z,11.60
2023-03-31T06:40:37.752Z,11.70
2023-03-31T06:43:04.681Z,11.70
2023-03-31T06:45:31.540Z,11.70
2023-03-31T06:47:58.720Z,11.80
2023-03-31T06:50:25.579Z,11.80
2023-03-31T06:52:55.093Z,11.80
2023-03-31T06:55:22.138Z,11.90
2023-03-31T06:57:48.962Z,11.90
2023-03-31T07:00:16.610Z,12.00
2023-03-31T07:02:43.558Z,12.00
2023-03-31T07:05:11.087Z,12.10
2023-03-31T07:07:37.965Z,12.20
2023-03-31T07:10:05.539Z,12.20
2023-03-31T07:12:35.684Z,12.20
2023-03-31T07:15:02.500Z,12.20
2023-03-31T07:17:29.476Z,12.20
2023-03-31T07:19:56.337Z,12.20
2023-03-31T07:22:23.280Z,12.20
2023-03-31T07:24:50.101Z,12.20
2023-03-31T07:27:16.914Z,12.10
2023-03-31T07:29:43.733Z,12.10
2023-03-31T07:32:10.691Z,12.10
2023-03-31T07:34:37.861Z,12.00
2023-03-31T07:37:05.293Z,12.00
2023-03-31T07:39:32.219Z,12.00
2023-03-31T07:41:59.177Z,12.00
2023-03-31T07:44:26.219Z,12.00
2023-03-31T07:46:53.004Z,12.00
2023-03-31T07:49:19.876Z,12.00
2023-03-31T07:51:46.688Z,12.00
2023-03-31T07:54:13.476Z,12.00
2023-03-31T07:56:40.375Z,12.10
2023-03-31T07:59:07.158Z,12.10
2023-03-31T08:01:34.766Z,12.00
2023-03-31T08:04:02.177Z,12.00
2023-03-31T08:06:30.001Z,12.00
2023-03-31T08:08:57.871Z,12.00
2023-03-31T08:11:26.339Z,12.00
2023-03-31T08:13:53.488Z,12.00
2023-03-31T08:16:20.601Z,12.10
2023-03-31T08:18:47.694Z,12.10
2023-03-31T08:21:14.595Z,12.20
2023-03-31T08:23:41.450Z,12.20
2023-03-31T08:26:10.953Z,12.20
2023-03-31T08:28:37.943Z,12.20
2023-03-31T08:31:10.472Z,12.20
2023-03-31T08:33:37.877Z,12.20
2023-03-31T08:36:09.094Z,12.20
2023-03-31T08:38:41.967Z,12.20
2023-03-31T08:41:31.053Z,12.20
2023-03-31T08:44:01.798Z,12.20
2023-03-31T08:46:31.525Z,12.30
2023-03-31T08:49:01.037Z,12.30
2023-03-31T08:51:53.413Z,12.30
2023-03-31T08:54:36.054Z,12.20
2023-03-31T08:57:10.778Z,12.20
2023-03-31T08:59:39.072Z,12.20
2023-03-31T09:02:56.896Z,12.20
2023-03-31T09:05:52.768Z,12.10
2023-03-31T09:08:35.655Z,12.10
2023-03-31T09:11:28.127Z,12.10
2023-03-31T09:15:01.179Z,12.10
2023-03-31T09:17:51.433Z,12.10
2023-03-31T09:20:38.469Z,12.20
2023-03-31T09:23:36.599Z,12.20
2023-03-31T09:26:05.353Z,12.30
2023-03-31T09:28:39.738Z,12.30
2023-03-31T09:31:17.788Z,12.50
2023-03-31T09:33:51.551Z,12.60
2023-03-31T09:36:24.681Z,12.80
2023-03-31T09:38:52.149Z,13.10
2023-03-31T09:41:19.728Z,13.70
2023-03-31T09:43:48.012Z,14.20
2023-03-31T09:46:35.253Z,14.70
2023-03-31T09:49:11.654Z,15.10
2023-03-31T09:51:46.116Z,15.30
2023-03-31T09:54:29.359Z,15.50
2023-03-31T09:56:56.609Z,15.60
2023-03-31T09:59:35.252Z,15.60
2023-03-31T10:02:38.566Z,15.60
2023-03-31T10:05:08.646Z,15.60
2023-03-31T10:07:35.920Z,15.60
2023-03-31T10:10:03.652Z,15.50
2023-03-31T10:12:32.014Z,15.50
2023-03-31T10:15:26.030Z,15.50
2023-03-31T10:17:55.387Z,15.50
2023-03-31T10:20:37.703Z,15.40
2023-03-31T10:23:17.763Z,15.30
2023-03-31T10:25:47.367Z,15.40
2023-03-31T10:28:20.354Z,15.40
2023-03-31T10:30:54.567Z,15.60
2023-03-31T10:33:28.559Z,15.70
2023-03-31T10:36:14.810Z,15.70
2023-03-31T10:38:46.802Z,15.70
2023-03-31T10:41:24.909Z,15.70
2023-03-31T10:43:58.403Z,15.90
2023-03-31T10:46:47.210Z,16.20
2023-03-31T10:49:23.131Z,16.40
2023-03-31T10:52:03.725Z,16.60
2023-03-31T10:54:31.202Z,16.80
2023-03-31T10:57:05.608Z,16.90
2023-03-31T10:59:38.373Z,17.00
2023-03-31T11:02:39.234Z,17.10
2023-03-31T11:05:22.534Z,17.10
2023-03-31T11:08:21.386Z,17.20
2023-03-31T11:11:29.081Z,17.10
2023-03-31T11:14:07.716Z,17.00
2023-03-31T11:17:16.576Z,16.90
2023-03-31T11:20:07.606Z,16.70
2023-03-31T11:23:03.914Z,16.60
2023-03-31T11:26:02.620Z,16.30
2023-03-31T11:28:50.526Z,16.00
2023-03-31T11:31:38.722Z,15.70
2023-03-31T11:34:29.702Z,15.40
2023-03-31T11:37:17.126Z,15.00
2023-03-31T11:39:55.911Z,14.70
2023-03-31T11:42:47.064Z,14.30
2023-03-31T11:45:43.350Z,13.90
2023-03-31T11:48:26.453Z,13.50
2023-03-31T11:50:54.496Z,13.20
2023-03-31T11:53:31.252Z,12.90
2023-03-31T11:56:02.401Z,12.80
2023-03-31T11:58:37.052Z,12.70
2023-03-31T12:01:10.861Z,12.70
2023-03-31T12:03:53.077Z,12.70
2023-03-31T12:06:26.585Z,12.60
2023-03-31T12:09:08.167Z,12.70
2023-03-31T12:12:18.392Z,12.70
2023-03-31T12:14:55.905Z,12.80
2023-03-31T12:17:27.527Z,13.00
2023-03-31T12:20:01.102Z,13.10
2023-03-31T12:22:41.918Z,13.20
2023-03-31T12:25:23.146Z,13.40
2023-03-31T12:27:51.562Z,13.60
2023-03-31T12:30:36.970Z,13.70
2023-03-31T12:33:12.577Z,13.80
2023-03-31T12:36:04.225Z,13.90
2023-03-31T12:38:55.273Z,13.90
2023-03-31T12:41:44.998Z,14.10
2023-03-31T12:44:38.423Z,14.20
2023-03-31T12:47:13.396Z,14.30
2023-03-31T12:50:10.674Z,14.30
2023-03-31T12:53:28.160Z,14.40
2023-03-31T12:55:59.497Z,14.40
2023-03-31T12:58:33.930Z,14.50
2023-03-31T13:01:15.975Z,14.50
2023-03-31T13:03:46.676Z,14.50
2023-03-31T13:06:28.536Z,14.50
2023-03-31T13:09:11.376Z,14.60
2023-03-31T13:11:44.540Z,14.70
2023-03-31T13:14:21.955Z,14.90
2023-03-31T13:16:53.506Z,14.90
2023-03-31T13:19:36.230Z,14.90
2023-03-31T13:22:06.045Z,14.90
2023-03-31T13:24:34.696Z,14.90
2023-03-31T13:27:50.221Z,14.80
2023-03-31T13:30:40.045Z,14.60
2023-03-31T13:33:27.980Z,14.50
2023-03-31T13:36:17.795Z,14.30
2023-03-31T13:39:12.895Z,14.20
2023-03-31T13:42:00.506Z,14.10
2023-03-31T13:45:19.348Z,14.10
2023-03-31T13:48:27.840Z,14.10
2023-03-31T13:51:21.159Z,14.20
2023-03-31T13:54:10.197Z,14.40
2023-03-31T13:57:24.911Z,14.70
2023-03-31T14:00:37.388Z,15.10
2023-03-31T14:03:50.596Z,15.70
2023-03-31T14:06:29.383Z,16.50
2023-03-31T14:09:10.651Z,17.20
2023-03-31T14:11:37.901Z,17.80
2023-03-31T14:14:04.675Z,18.10
2023-03-31T14:16:39.540Z,18.20
2023-03-31T14:19:24.934Z,18.20
2023-03-31T14:22:02.674Z,18.00
2023-03-31T14:25:13.862Z,17.70
2023-03-31T14:28:05.146Z,17.40
2023-03-31T14:31:02.932Z,17.00
2023-03-31T14:33:46.515Z,16.70
2023-03-31T14:36:39.402Z,16.50
2023-03-31T14:39:11.654Z,16.20
2023-03-31T14:41:40.105Z,16.00
2023-03-31T14:44:12.914Z,15.80
2023-03-31T14:46:39.784Z,15.60
2023-03-31T14:49:28.847Z,15.40
2023-03-31T14:52:06.547Z,15.20
2023-03-31T14:54:38.749Z,14.90
2023-03-31T14:57:06.416Z,14.60
2023-03-31T14:59:35.903Z,14.40
2023-03-31T15:02:05.528Z,14.10
2023-03-31T15:04:44.874Z,13.90
2023-03-31T15:07:13.391Z,13.60
2023-03-31T15:09:49.487Z,13.50
2023-03-31T15:12:20.681Z,13.30
2023-03-31T15:14:52.199Z,13.30
2023-03-31T15:17:30.371Z,13.50
2023-03-31T15:20:04.868Z,13.80
2023-03-31T15:22:31.803Z,14.10
2023-03-31T15:24:58.849Z,14.40
2023-03-31T15:27:41.462Z,14.50
2023-03-31T15:30:17.073Z,14.60
2023-03-31T15:32:44.330Z,14.70
2023-03-31T15:35:30.551Z,14.80
2023-03-31T15:38:00.453Z,14.80
2023-03-31T15:40:36.650Z,14.90
2023-03-31T15:43:24.255Z,15.00
2023-03-31T15:45:54.851Z,15.00
2023-03-31T15:48:38.579Z,15.00
2023-03-31T15:51:24.286Z,15.00
2023-03-31T15:53:53.841Z,15.10
2023-03-31T15:56:44.383Z,15.10
2023-03-31T15:59:34.424Z,15.10
2023-03-31T16:02:05.851Z,15.10
2023-03-31T16:04:33.399Z,15.00
2023-03-31T16:07:09.412Z,14.90
2023-03-31T16:09:51.119Z,14.90
2023-03-31T16:12:38.096Z,14.90
2023-03-31T16:15:14.068Z,14.90
2023-03-31T16:17:57.919Z,15.00
2023-03-31T16:20:40.226Z,15.20
2023-03-31T16:23:38.710Z,15.40
2023-03-31T16:26:07.225Z,15.70
2023-03-31T16:28:38.640Z,15.90
2023-03-31T16:31:35.033Z,16.20
2023-03-31T16:34:05.032Z,16.50
2023-03-31T16:36:31.956Z,16.80
2023-03-31T16:39:01.884Z,17.10
2023-03-31T16:41:29.991Z,17.20
2023-03-31T16:43:56.852Z,17.30
2023-03-31T16:46:24.706Z,17.30
2023-03-31T16:48:53.166Z,17.20
2023-03-31T16:51:20.459Z,17.00
2023-03-31T16:53:48.355Z,16.80
2023-03-31T16:56:15.729Z,16.50
2023-03-31T16:58:43.641Z,16.30
2023-03-31T17:01:11.932Z,16.00
2023-03-31T17:03:41.576Z,15.80
2023-03-31T17:06:12.529Z,15.50
2023-03-31T17:08:39.852Z,15.30
2023-03-31T17:11:12.248Z,14.90
2023-03-31T17:13:41.768Z,14.50
2023-03-31T17:16:21.586Z,14.00
2023-03-31T17:18:54.350Z,13.50
2023-03-31T17:21:21.938Z,13.00
2023-03-31T17:23:49.729Z,12.60
2023-03-31T17:26:18.008Z,12.30
2023-03-31T17:28:45.408Z,12.00
2023-03-31T17:31:21.079Z,11.70
2023-03-31T17:33:48.337Z,11.50
2023-03-31T17:36:15.708Z,11.30
2023-03-31T17:38:42.802Z,11.20
2023-03-31T17:41:13.078Z,11.00
2023-03-31T17:43:44.745Z,10.90
2023-03-31T17:46:13.007Z,10.80
2023-03-31T17:48:41.267Z,10.80
2023-03-31T17:51:16.986Z,10.70
2023-03-31T17:53:46.702Z,10.70
2023-03-31T17:56:15.574Z,10.60
2023-03-31T17:58:42.781Z,10.60
2023-03-31T18:01:16.850Z,10.50
2023-03-31T18:03:46.107Z,10.50
2023-03-31T18:06:14.777Z,10.50
2023-03-31T18:08:42.707Z,10.50
2023-03-31T18:11:10.931Z,10.50
2023-03-31T18:13:39.098Z,10.50
2023-03-31T18:16:09.576Z,10.40
2023-03-31T18:18:38.014Z,10.50
2023-03-31T18:21:08.339Z,10.50
2023-03-31T18:23:36.697Z,10.50
2023-03-31T18:26:11.708Z,10.60
2023-03-31T18:28:40.836Z,10.60
2023-03-31T18:31:09.244Z,10.60
2023-03-31T18:33:37.738Z,10.60
2023-03-31T18:36:06.847Z,10.70
2023-03-31T18:38:36.792Z,10.70
2023-03-31T18:41:04.676Z,10.70
2023-03-31T18:43:33.331Z,10.70
2023-03-31T18:46:01.355Z,10.70
2023-03-31T18:48:28.249Z,10.70
2023-03-31T18:50:55.094Z,10.70
2023-03-31T18:53:24.282Z,10.70
2023-03-31T18:55:53.086Z,10.70
2023-03-31T18:58:20.395Z,10.70
2023-03-31T19:00:47.548Z,10.70
2023-03-31T19:03:14.757Z,10.80
2023-03-31T19:05:42.400Z,10.70
2023-03-31T19:08:09.733Z,10.70
2023-03-31T19:10:36.704Z,10.70
2023-03-31T19:13:04.003Z,10.70
2023-03-31T19:15:31.070Z,10.70
2023-03-31T19:17:58.128Z,10.70
2023-03-31T19:20:25.121Z,10.70
2023-03-31T19:22:52.529Z,10.70
2023-03-31T19:25:21.504Z,10.70
2023-03-31T19:27:48.608Z,10.80
2023-03-31T19:30:20.205Z,10.70
2023-03-31T19:32:49.049Z,10.80
2023-03-31T19:35:18.572Z,10.80
2023-03-31T19:37:46.668Z,10.70
2023-03-31T19:40:14.559Z,10.70
2023-03-31T19:42:42.230Z,10.80
2023-03-31T19:45:09.705Z,10.80
2023-03-31T19:47:36.657Z,10.80
2023-03-31T19:50:04.026Z,10.80
2023-03-31T19:52:30.912Z,10.80
2023-03-31T19:54:57.805Z,10.80
2023-03-31T19:57:24.667Z,10.90
2023-03-31T19:59:51.511Z,10.90
2023-03-31T20:02:18.731Z,10.90
2023-03-31T20:04:45.885Z,10.90
2023-03-31T20:07:12.884Z,11.00
2023-03-31T20:09:39.721Z,11.00
2023-03-31T20:12:06.988Z,11.00
2023-03-31T20:14:34.211Z,11.00
2023-03-31T20:17:02.268Z,11.10
2023-03-31T20:19:29.639Z,11.10
2023-03-31T20:21:57.976Z,11.10
2023-03-31T20:24:27.294Z,11.10
2023-03-31T20:26:54.281Z,11.10
2023-03-31T20:29:22.010Z,11.10
2023-03-31T20:31:50.370Z,11.20
2023-03-31T20:34:19.641Z,11.20
2023-03-31T20:36:49.226Z,11.20
2023-03-31T20:39:16.565Z,11.20
2023-03-31T20:41:44.848Z,11.20
2023-03-31T20:44:15.600Z,11.20
2023-03-31T20:46:44.770Z,11.30
2023-03-31T20:49:12.298Z,11.30
2023-03-31T20:51:40.070Z,11.30
2023-03-31T20:54:07.973Z,11.30
2023-03-31T20:56:40.561Z,11.40
2023-03-31T20:59:14.932Z,11.30
2023-03-31T21:01:45.080Z,11.40
2023-03-31T21:04:12.187Z,11.40
2023-03-31T21:06:46.107Z,11.40
2023-03-31T21:09:15.087Z,11.40
2023-03-31T21:11:42.336Z,11.40
2023-03-31T21:14:15.821Z,11.40
2023-03-31T21:16:43.210Z,11.40
2023-03-31T21:19:10.713Z,11.40
2023-03-31T21:21:40.955Z,11.50
2023-03-31T21:24:11.289Z,11.50
2023-03-31T21:26:39.261Z,11.50
2023-03-31T21:29:06.332Z,11.50
2023-03-31T21:31:33.227Z,11.60
2023-03-31T21:34:02.475Z,11.60
2023-03-31T21:36:29.702Z,11.60
2023-03-31T21:38:57.912Z,11.60
2023-03-31T21:41:28.748Z,11.60
2023-03-31T21:43:56.375Z,11.60
2023-03-31T21:46:29.375Z,11.70
2023-03-31T21:48:57.427Z,11.60
2023-03-31T21:51:25.713Z,11.60
2023-03-31T21:53:55.430Z,11.60
2023-03-31T21:56:25.724Z,11.60
2023-03-31T21:58:52.683Z,11.60
2023-03-31T22:01:21.746Z,11.60
2023-03-31T22:03:49.532Z,11.60
2023-03-31T22:06:16.800Z,11.50
2023-03-31T22:08:43.943Z,11.50
2023-03-31T22:11:12.712Z,11.50
2023-03-31T22:13:39.819Z,11.50
2023-03-31T22:16:18.900Z,11.50
2023-03-31T22:18:47.649Z,11.50
2023-03-31T22:21:20.917Z,11.50
2023-03-31T22:23:50.448Z,11.40
2023-03-31T22:26:17.281Z,11.40
2023-03-31T22:28:44.266Z,11.40
2023-03-31T22:31:11.184Z,11.40
2023-03-31T22:33:37.999Z,11.40
2023-03-31T22:36:05.461Z,11.40
2023-03-31T22:38:32.380Z,11.40
2023-03-31T22:40:59.273Z,11.30
2023-03-31T22:43:27.022Z,11.30
2023-03-31T22:45:53.849Z,11.30
2023-03-31T22:48:20.777Z,11.30
2023-03-31T22:50:47.889Z,11.30
2023-03-31T22:53:14.983Z,11.30
2023-03-31T22:55:44.128Z,11.20
2023-03-31T22:58:22.560Z,11.20
2023-03-31T23:00:59.496Z,11.20
2023-03-31T23:03:27.700Z,11.30
2023-03-31T23:05:54.689Z,11.30
2023-03-31T23:08:22.067Z,11.30
2023-03-31T23:10:59.943Z,11.30
2023-03-31T23:13:28.882Z,11.30
2023-03-31T23:15:56.162Z,11.30
2023-03-31T23:18:23.541Z,11.40
2023-03-31T23:20:50.581Z,11.30
2023-03-31T23:23:17.535Z,11.30
2023-03-31T23:25:44.362Z,11.30
2023-03-31T23:28:11.166Z,11.30
2023-03-31T23:30:38.069Z,11.20
2023-03-31T23:33:04.981Z,11.20
2023-03-31T23:35:31.992Z,11.20
2023-03-31T23:37:59.080Z,11.20
2023-03-31T23:40:26.033Z,11.20
2023-03-31T23:42:52.834Z,11.20
2023-03-31T23:45:19.675Z,11.20
2023-03-31T23:47:46.564Z,11.20
2023-03-31T23:50:13.467Z,11.10
2023-03-31T23:52:40.603Z,11.20
2023-03-31T23:55:07.824Z,11.20
2023-03-31T23:57:34.754Z,11.10
